sensor_id;sensor_type;location;lat;lon;timestamp;P1;durP1;ratioP1;P2;durP2;ratioP2
22937;SDS011;11634;42.734;23.298;2023-02-28T00:00:35;27.80;;;17.55;;
22937;SDS011;11634;42.734;23.298;2023-02-28T00:03:04;23.02;;;17.50;;
22937;SDS011;11634;42.734;23.298;2023-02-28T00:05:30;27.38;;;18.38;;
22937;SDS011;11634;42.734;23.298;2023-02-28T00:07:56;24.85;;;17.35;;
22937;SDS011;11634;42.734;23.298;2023-02-28T00:10:23;23.85;;;16.05;;
22937;SDS011;11634;42.734;23.298;2023-02-28T00:12:52;21.45;;;14.45;;
22937;SDS011;11634;42.734;23.298;2023-02-28T00:15:19;21.20;;;14.88;;
22937;SDS011;11634;42.734;23.298;2023-02-28T00:17:46;22.02;;;15.85;;
22937;SDS011;11634;42.734;23.298;2023-02-28T00:20:12;20.95;;;15.02;;
22937;SDS011;11634;42.734;23.298;2023-02-28T00:22:40;25.75;;;17.25;;
22937;SDS011;11634;42.734;23.298;2023-02-28T00:25:08;22.30;;;16.08;;
22937;SDS011;11634;42.734;23.298;2023-02-28T00:27:37;24.70;;;16.42;;
22937;SDS011;11634;42.734;23.298;2023-02-28T00:30:10;23.73;;;16.05;;
22937;SDS011;11634;42.734;23.298;2023-02-28T00:32:38;24.15;;;15.65;;
22937;SDS011;11634;42.734;23.298;2023-02-28T00:35:05;26.27;;;17.45;;
22937;SDS011;11634;42.734;23.298;2023-02-28T00:37:31;24.10;;;15.95;;
22937;SDS011;11634;42.734;23.298;2023-02-28T00:39:57;24.80;;;17.20;;
22937;SDS011;11634;42.734;23.298;2023-02-28T00:42:28;26.30;;;17.23;;
22937;SDS011;11634;42.734;23.298;2023-02-28T00:44:56;26.13;;;17.63;;
22937;SDS011;11634;42.734;23.298;2023-02-28T00:47:25;26.80;;;17.40;;
22937;SDS011;11634;42.734;23.298;2023-02-28T00:49:51;26.75;;;18.00;;
22937;SDS011;11634;42.734;23.298;2023-02-28T00:52:16;27.17;;;18.40;;
22937;SDS011;11634;42.734;23.298;2023-02-28T00:54:45;27.23;;;17.83;;
22937;SDS011;11634;42.734;23.298;2023-02-28T00:57:11;28.25;;;17.50;;
22937;SDS011;11634;42.734;23.298;2023-02-28T00:59:42;29.77;;;17.50;;
22937;SDS011;11634;42.734;23.298;2023-02-28T01:02:07;28.60;;;18.88;;
22937;SDS011;11634;42.734;23.298;2023-02-28T01:04:35;29.90;;;18.52;;
22937;SDS011;11634;42.734;23.298;2023-02-28T01:07:01;24.50;;;16.20;;
22937;SDS011;11634;42.734;23.298;2023-02-28T01:09:29;27.70;;;17.45;;
22937;SDS011;11634;42.734;23.298;2023-02-28T01:11:55;27.52;;;16.98;;
22937;SDS011;11634;42.734;23.298;2023-02-28T01:14:20;26.42;;;17.23;;
22937;SDS011;11634;42.734;23.298;2023-02-28T01:16:46;28.30;;;17.67;;
22937;SDS011;11634;42.734;23.298;2023-02-28T01:19:12;25.40;;;16.67;;
22937;SDS011;11634;42.734;23.298;2023-02-28T01:21:38;25.35;;;17.23;;
22937;SDS011;11634;42.734;23.298;2023-02-28T01:24:04;23.60;;;16.40;;
22937;SDS011;11634;42.734;23.298;2023-02-28T01:26:30;28.50;;;18.15;;
22937;SDS011;11634;42.734;23.298;2023-02-28T01:28:57;26.23;;;17.38;;
22937;SDS011;11634;42.734;23.298;2023-02-28T01:31:24;29.65;;;17.83;;
22937;SDS011;11634;42.734;23.298;2023-02-28T01:33:50;24.45;;;16.63;;
22937;SDS011;11634;42.734;23.298;2023-02-28T01:36:18;27.92;;;16.40;;
22937;SDS011;11634;42.734;23.298;2023-02-28T01:38:45;27.55;;;17.77;;
22937;SDS011;11634;42.734;23.298;2023-02-28T01:41:16;30.10;;;19.58;;
22937;SDS011;11634;42.734;23.298;2023-02-28T01:47:09;29.17;;;18.20;;
22937;SDS011;11634;42.734;23.298;2023-02-28T01:49:35;31.00;;;19.63;;
22937;SDS011;11634;42.734;23.298;2023-02-28T01:52:01;32.17;;;19.10;;
22937;SDS011;11634;42.734;23.298;2023-02-28T01:54:29;27.17;;;17.35;;
22937;SDS011;11634;42.734;23.298;2023-02-28T01:57:01;29.23;;;17.97;;
22937;SDS011;11634;42.734;23.298;2023-02-28T01:59:35;26.05;;;16.83;;
22937;SDS011;11634;42.734;23.298;2023-02-28T02:02:05;28.70;;;18.07;;
22937;SDS011;11634;42.734;23.298;2023-02-28T02:04:32;26.90;;;17.67;;
22937;SDS011;11634;42.734;23.298;2023-02-28T02:07:03;28.45;;;18.10;;
22937;SDS011;11634;42.734;23.298;2023-02-28T02:09:30;26.05;;;17.27;;
22937;SDS011;11634;42.734;23.298;2023-02-28T02:11:55;26.33;;;16.88;;
22937;SDS011;11634;42.734;23.298;2023-02-28T02:17:16;28.77;;;18.00;;
22937;SDS011;11634;42.734;23.298;2023-02-28T02:26:10;30.70;;;18.98;;
22937;SDS011;11634;42.734;23.298;2023-02-28T02:37:50;29.98;;;19.92;;
22937;SDS011;11634;42.734;23.298;2023-02-28T02:40:36;27.17;;;17.90;;
22937;SDS011;11634;42.734;23.298;2023-02-28T02:43:31;25.13;;;16.63;;
22937;SDS011;11634;42.734;23.298;2023-02-28T02:46:02;29.38;;;18.23;;
22937;SDS011;11634;42.734;23.298;2023-02-28T02:48:34;29.87;;;17.40;;
22937;SDS011;11634;42.734;23.298;2023-02-28T02:51:04;26.60;;;17.70;;
22937;SDS011;11634;42.734;23.298;2023-02-28T02:53:50;28.23;;;16.83;;
22937;SDS011;11634;42.734;23.298;2023-02-28T02:56:20;28.07;;;17.07;;
22937;SDS011;11634;42.734;23.298;2023-02-28T02:58:51;25.67;;;16.63;;
22937;SDS011;11634;42.734;23.298;2023-02-28T03:01:21;27.65;;;17.95;;
22937;SDS011;11634;42.734;23.298;2023-02-28T03:03:57;29.57;;;17.03;;
22937;SDS011;11634;42.734;23.298;2023-02-28T03:06:25;29.47;;;17.37;;
22937;SDS011;11634;42.734;23.298;2023-02-28T03:08:52;24.13;;;16.40;;
22937;SDS011;11634;42.734;23.298;2023-02-28T03:11:19;25.80;;;16.30;;
22937;SDS011;11634;42.734;23.298;2023-02-28T03:24:45;24.40;;;15.90;;
22937;SDS011;11634;42.734;23.298;2023-02-28T03:27:30;24.23;;;15.50;;
22937;SDS011;11634;42.734;23.298;2023-02-28T03:30:06;20.13;;;14.68;;
22937;SDS011;11634;42.734;23.298;2023-02-28T03:32:51;20.30;;;14.05;;
22937;SDS011;11634;42.734;23.298;2023-02-28T03:35:37;22.92;;;14.25;;
22937;SDS011;11634;42.734;23.298;2023-02-28T03:38:11;23.40;;;15.60;;
22937;SDS011;11634;42.734;23.298;2023-02-28T03:40:42;24.60;;;15.80;;
22937;SDS011;11634;42.734;23.298;2023-02-28T03:43:12;25.10;;;17.40;;
22937;SDS011;11634;42.734;23.298;2023-02-28T03:45:45;21.90;;;15.70;;
22937;SDS011;11634;42.734;23.298;2023-02-28T03:48:25;22.30;;;16.00;;
22937;SDS011;11634;42.734;23.298;2023-02-28T03:50:56;24.35;;;16.27;;
22937;SDS011;11634;42.734;23.298;2023-02-28T03:53:28;27.65;;;17.55;;
22937;SDS011;11634;42.734;23.298;2023-02-28T03:59:04;22.80;;;16.08;;
22937;SDS011;11634;42.734;23.298;2023-02-28T04:01:50;22.55;;;15.35;;
22937;SDS011;11634;42.734;23.298;2023-02-28T04:04:17;20.60;;;14.35;;
22937;SDS011;11634;42.734;23.298;2023-02-28T04:06:43;24.50;;;17.08;;
22937;SDS011;11634;42.734;23.298;2023-02-28T04:09:11;25.10;;;16.45;;
22937;SDS011;11634;42.734;23.298;2023-02-28T04:14:06;28.08;;;18.88;;
22937;SDS011;11634;42.734;23.298;2023-02-28T04:16:34;47.60;;;30.92;;
22937;SDS011;11634;42.734;23.298;2023-02-28T04:19:01;22.02;;;15.27;;
22937;SDS011;11634;42.734;23.298;2023-02-28T04:21:31;25.58;;;17.35;;
22937;SDS011;11634;42.734;23.298;2023-02-28T04:23:57;22.70;;;14.82;;
22937;SDS011;11634;42.734;23.298;2023-02-28T04:26:30;21.00;;;14.40;;
22937;SDS011;11634;42.734;23.298;2023-02-28T04:28:56;20.90;;;14.15;;
22937;SDS011;11634;42.734;23.298;2023-02-28T04:31:22;20.40;;;14.23;;
22937;SDS011;11634;42.734;23.298;2023-02-28T04:33:48;21.73;;;14.45;;
22937;SDS011;11634;42.734;23.298;2023-02-28T04:36:14;22.77;;;14.68;;
22937;SDS011;11634;42.734;23.298;2023-02-28T04:38:42;22.52;;;14.68;;
22937;SDS011;11634;42.734;23.298;2023-02-28T04:41:09;25.98;;;15.40;;
22937;SDS011;11634;42.734;23.298;2023-02-28T04:43:35;21.67;;;14.05;;
22937;SDS011;11634;42.734;23.298;2023-02-28T04:46:01;26.35;;;15.77;;
22937;SDS011;11634;42.734;23.298;2023-02-28T04:48:29;26.67;;;17.98;;
22937;SDS011;11634;42.734;23.298;2023-02-28T04:51:00;30.58;;;18.27;;
22937;SDS011;11634;42.734;23.298;2023-02-28T04:53:27;33.63;;;20.95;;
22937;SDS011;11634;42.734;23.298;2023-02-28T04:55:54;32.10;;;20.98;;
22937;SDS011;11634;42.734;23.298;2023-02-28T04:58:21;31.40;;;20.20;;
22937;SDS011;11634;42.734;23.298;2023-02-28T05:00:52;30.33;;;19.73;;
22937;SDS011;11634;42.734;23.298;2023-02-28T05:03:18;33.45;;;20.35;;
22937;SDS011;11634;42.734;23.298;2023-02-28T05:05:46;35.28;;;21.20;;
22937;SDS011;11634;42.734;23.298;2023-02-28T05:08:12;31.13;;;20.70;;
22937;SDS011;11634;42.734;23.298;2023-02-28T05:10:44;32.65;;;21.48;;
22937;SDS011;11634;42.734;23.298;2023-02-28T05:13:12;37.83;;;21.25;;
22937;SDS011;11634;42.734;23.298;2023-02-28T05:15:38;36.85;;;22.80;;
22937;SDS011;11634;42.734;23.298;2023-02-28T05:18:04;40.38;;;27.35;;
22937;SDS011;11634;42.734;23.298;2023-02-28T05:20:32;44.13;;;26.88;;
22937;SDS011;11634;42.734;23.298;2023-02-28T05:23:05;38.85;;;24.48;;
22937;SDS011;11634;42.734;23.298;2023-02-28T05:25:33;32.58;;;21.88;;
22937;SDS011;11634;42.734;23.298;2023-02-28T05:27:59;34.85;;;21.50;;
22937;SDS011;11634;42.734;23.298;2023-02-28T05:30:24;34.53;;;21.88;;
22937;SDS011;11634;42.734;23.298;2023-02-28T05:32:50;36.67;;;23.10;;
22937;SDS011;11634;42.734;23.298;2023-02-28T05:35:17;38.17;;;22.75;;
22937;SDS011;11634;42.734;23.298;2023-02-28T05:37:42;36.53;;;23.27;;
22937;SDS011;11634;42.734;23.298;2023-02-28T05:40:08;39.92;;;23.88;;
22937;SDS011;11634;42.734;23.298;2023-02-28T05:42:35;44.03;;;24.25;;
22937;SDS011;11634;42.734;23.298;2023-02-28T05:45:01;48.80;;;25.58;;
22937;SDS011;11634;42.734;23.298;2023-02-28T05:47:27;42.55;;;24.23;;
22937;SDS011;11634;42.734;23.298;2023-02-28T05:49:53;50.85;;;27.17;;
22937;SDS011;11634;42.734;23.298;2023-02-28T05:52:18;47.53;;;25.23;;
22937;SDS011;11634;42.734;23.298;2023-02-28T05:54:45;52.95;;;25.48;;
22937;SDS011;11634;42.734;23.298;2023-02-28T05:57:11;46.45;;;24.38;;
22937;SDS011;11634;42.734;23.298;2023-02-28T05:59:37;47.83;;;26.52;;
22937;SDS011;11634;42.734;23.298;2023-02-28T06:02:05;44.15;;;24.35;;
22937;SDS011;11634;42.734;23.298;2023-02-28T06:04:36;45.67;;;25.90;;
22937;SDS011;11634;42.734;23.298;2023-02-28T06:07:01;56.42;;;31.92;;
22937;SDS011;11634;42.734;23.298;2023-02-28T06:09:27;49.80;;;26.65;;
22937;SDS011;11634;42.734;23.298;2023-02-28T06:11:52;58.33;;;29.58;;
22937;SDS011;11634;42.734;23.298;2023-02-28T06:14:19;63.47;;;31.27;;
22937;SDS011;11634;42.734;23.298;2023-02-28T06:16:45;57.00;;;29.83;;
22937;SDS011;11634;42.734;23.298;2023-02-28T06:19:11;63.95;;;31.52;;
22937;SDS011;11634;42.734;23.298;2023-02-28T06:21:36;64.05;;;30.23;;
22937;SDS011;11634;42.734;23.298;2023-02-28T06:24:02;63.90;;;30.88;;
22937;SDS011;11634;42.734;23.298;2023-02-28T06:26:30;68.93;;;31.55;;
22937;SDS011;11634;42.734;23.298;2023-02-28T06:28:55;68.55;;;31.45;;
22937;SDS011;11634;42.734;23.298;2023-02-28T06:31:21;76.13;;;32.80;;
22937;SDS011;11634;42.734;23.298;2023-02-28T06:33:48;68.82;;;32.92;;
22937;SDS011;11634;42.734;23.298;2023-02-28T06:36:14;64.20;;;31.60;;
22937;SDS011;11634;42.734;23.298;2023-02-28T06:38:40;65.72;;;31.95;;
22937;SDS011;11634;42.734;23.298;2023-02-28T06:41:07;67.60;;;31.15;;
22937;SDS011;11634;42.734;23.298;2023-02-28T06:43:34;79.43;;;34.78;;
22937;SDS011;11634;42.734;23.298;2023-02-28T06:46:03;75.85;;;38.03;;
22937;SDS011;11634;42.734;23.298;2023-02-28T06:48:30;74.50;;;37.40;;
22937;SDS011;11634;42.734;23.298;2023-02-28T06:51:29;79.75;;;37.92;;
22937;SDS011;11634;42.734;23.298;2023-02-28T06:53:49;76.95;;;36.63;;
22937;SDS011;11634;42.734;23.298;2023-02-28T06:56:16;74.32;;;37.45;;
22937;SDS011;11634;42.734;23.298;2023-02-28T06:58:45;65.47;;;34.13;;
22937;SDS011;11634;42.734;23.298;2023-02-28T07:01:13;66.05;;;35.65;;
22937;SDS011;11634;42.734;23.298;2023-02-28T07:03:38;58.80;;;32.65;;
22937;SDS011;11634;42.734;23.298;2023-02-28T07:06:04;60.50;;;33.00;;
22937;SDS011;11634;42.734;23.298;2023-02-28T07:08:30;60.15;;;33.38;;
22937;SDS011;11634;42.734;23.298;2023-02-28T07:10:57;62.33;;;32.28;;
22937;SDS011;11634;42.734;23.298;2023-02-28T07:13:23;55.47;;;32.92;;
22937;SDS011;11634;42.734;23.298;2023-02-28T07:15:53;52.60;;;30.27;;
22937;SDS011;11634;42.734;23.298;2023-02-28T07:18:20;50.70;;;30.15;;
22937;SDS011;11634;42.734;23.298;2023-02-28T07:20:45;52.17;;;31.23;;
22937;SDS011;11634;42.734;23.298;2023-02-28T07:23:11;54.63;;;31.20;;
22937;SDS011;11634;42.734;23.298;2023-02-28T07:25:36;61.78;;;34.75;;
22937;SDS011;11634;42.734;23.298;2023-02-28T07:28:02;66.38;;;38.22;;
22937;SDS011;11634;42.734;23.298;2023-02-28T07:30:28;94.78;;;48.60;;
22937;SDS011;11634;42.734;23.298;2023-02-28T07:32:53;72.47;;;40.20;;
22937;SDS011;11634;42.734;23.298;2023-02-28T07:35:21;63.42;;;34.83;;
22937;SDS011;11634;42.734;23.298;2023-02-28T07:37:47;66.88;;;37.35;;
22937;SDS011;11634;42.734;23.298;2023-02-28T07:40:13;74.13;;;40.30;;
22937;SDS011;11634;42.734;23.298;2023-02-28T07:42:40;79.13;;;41.80;;
22937;SDS011;11634;42.734;23.298;2023-02-28T07:45:08;72.88;;;42.00;;
22937;SDS011;11634;42.734;23.298;2023-02-28T07:47:40;75.78;;;39.90;;
22937;SDS011;11634;42.734;23.298;2023-02-28T07:50:07;71.97;;;40.08;;
22937;SDS011;11634;42.734;23.298;2023-02-28T07:52:36;64.28;;;40.03;;
22937;SDS011;11634;42.734;23.298;2023-02-28T07:55:02;72.53;;;39.63;;
22937;SDS011;11634;42.734;23.298;2023-02-28T07:57:29;65.32;;;36.33;;
22937;SDS011;11634;42.734;23.298;2023-02-28T07:59:55;62.33;;;35.90;;
22937;SDS011;11634;42.734;23.298;2023-02-28T08:02:20;64.82;;;36.03;;
22937;SDS011;11634;42.734;23.298;2023-02-28T08:04:46;57.60;;;34.30;;
22937;SDS011;11634;42.734;23.298;2023-02-28T08:07:13;54.92;;;33.28;;
22937;SDS011;11634;42.734;23.298;2023-02-28T08:09:39;54.63;;;31.55;;
22937;SDS011;11634;42.734;23.298;2023-02-28T08:12:06;51.42;;;30.10;;
22937;SDS011;11634;42.734;23.298;2023-02-28T08:14:35;49.95;;;30.23;;
22937;SDS011;11634;42.734;23.298;2023-02-28T08:17:01;44.75;;;29.98;;
22937;SDS011;11634;42.734;23.298;2023-02-28T08:19:28;48.45;;;30.40;;
22937;SDS011;11634;42.734;23.298;2023-02-28T08:21:54;45.40;;;29.92;;
22937;SDS011;11634;42.734;23.298;2023-02-28T08:24:23;49.08;;;30.25;;
22937;SDS011;11634;42.734;23.298;2023-02-28T08:26:51;47.05;;;28.42;;
22937;SDS011;11634;42.734;23.298;2023-02-28T08:29:19;54.38;;;32.08;;
22937;SDS011;11634;42.734;23.298;2023-02-28T08:31:45;50.63;;;31.92;;
22937;SDS011;11634;42.734;23.298;2023-02-28T08:34:11;52.20;;;32.67;;
22937;SDS011;11634;42.734;23.298;2023-02-28T08:36:39;49.92;;;32.22;;
22937;SDS011;11634;42.734;23.298;2023-02-28T08:39:05;50.92;;;31.73;;
22937;SDS011;11634;42.734;23.298;2023-02-28T08:41:32;52.75;;;32.70;;
22937;SDS011;11634;42.734;23.298;2023-02-28T08:43:59;55.10;;;31.83;;
22937;SDS011;11634;42.734;23.298;2023-02-28T08:46:25;48.70;;;32.28;;
22937;SDS011;11634;42.734;23.298;2023-02-28T08:48:52;46.42;;;31.30;;
22937;SDS011;11634;42.734;23.298;2023-02-28T08:51:20;40.65;;;28.35;;
22937;SDS011;11634;42.734;23.298;2023-02-28T08:53:52;42.45;;;28.92;;
22937;SDS011;11634;42.734;23.298;2023-02-28T08:56:18;43.22;;;29.02;;
22937;SDS011;11634;42.734;23.298;2023-02-28T08:58:46;48.85;;;31.05;;
22937;SDS011;11634;42.734;23.298;2023-02-28T09:01:20;44.63;;;29.50;;
22937;SDS011;11634;42.734;23.298;2023-02-28T09:03:48;45.72;;;29.27;;
22937;SDS011;11634;42.734;23.298;2023-02-28T09:06:15;42.92;;;28.58;;
22937;SDS011;11634;42.734;23.298;2023-02-28T09:08:42;40.88;;;27.10;;
22937;SDS011;11634;42.734;23.298;2023-02-28T09:11:08;38.25;;;27.95;;
22937;SDS011;11634;42.734;23.298;2023-02-28T09:13:34;40.00;;;28.05;;
22937;SDS011;11634;42.734;23.298;2023-02-28T09:16:01;41.75;;;27.77;;
22937;SDS011;11634;42.734;23.298;2023-02-28T09:18:28;44.17;;;28.70;;
22937;SDS011;11634;42.734;23.298;2023-02-28T09:20:55;43.90;;;29.80;;
22937;SDS011;11634;42.734;23.298;2023-02-28T09:23:24;45.22;;;28.98;;
22937;SDS011;11634;42.734;23.298;2023-02-28T09:25:51;41.92;;;26.88;;
22937;SDS011;11634;42.734;23.298;2023-02-28T09:28:19;42.53;;;29.00;;
22937;SDS011;11634;42.734;23.298;2023-02-28T09:30:49;42.97;;;29.08;;
22937;SDS011;11634;42.734;23.298;2023-02-28T09:33:17;41.63;;;29.23;;
22937;SDS011;11634;42.734;23.298;2023-02-28T09:35:46;42.75;;;29.23;;
22937;SDS011;11634;42.734;23.298;2023-02-28T09:38:12;41.05;;;29.05;;
22937;SDS011;11634;42.734;23.298;2023-02-28T09:40:46;40.83;;;28.42;;
22937;SDS011;11634;42.734;23.298;2023-02-28T09:43:17;42.97;;;28.80;;
22937;SDS011;11634;42.734;23.298;2023-02-28T09:45:55;44.42;;;26.83;;
22937;SDS011;11634;42.734;23.298;2023-02-28T09:48:37;38.40;;;27.08;;
22937;SDS011;11634;42.734;23.298;2023-02-28T09:54:15;40.17;;;27.48;;
22937;SDS011;11634;42.734;23.298;2023-02-28T09:56:55;44.72;;;27.52;;
22937;SDS011;11634;42.734;23.298;2023-02-28T10:05:18;31.45;;;19.67;;
22937;SDS011;11634;42.734;23.298;2023-02-28T10:07:50;28.48;;;17.92;;
22937;SDS011;11634;42.734;23.298;2023-02-28T10:10:24;25.15;;;14.45;;
22937;SDS011;11634;42.734;23.298;2023-02-28T10:13:13;24.83;;;13.05;;
22937;SDS011;11634;42.734;23.298;2023-02-28T10:15:47;28.00;;;14.75;;
22937;SDS011;11634;42.734;23.298;2023-02-28T10:18:19;21.92;;;14.30;;
22937;SDS011;11634;42.734;23.298;2023-02-28T10:20:49;23.20;;;13.05;;
22937;SDS011;11634;42.734;23.298;2023-02-28T10:23:19;29.33;;;15.35;;
22937;SDS011;11634;42.734;23.298;2023-02-28T10:26:04;21.40;;;14.02;;
22937;SDS011;11634;42.734;23.298;2023-02-28T10:28:36;22.90;;;12.70;;
22937;SDS011;11634;42.734;23.298;2023-02-28T10:31:02;20.25;;;13.10;;
22937;SDS011;11634;42.734;23.298;2023-02-28T10:33:34;21.08;;;11.85;;
22937;SDS011;11634;42.734;23.298;2023-02-28T10:36:01;18.70;;;11.30;;
22937;SDS011;11634;42.734;23.298;2023-02-28T10:38:35;19.48;;;12.90;;
22937;SDS011;11634;42.734;23.298;2023-02-28T10:41:07;28.13;;;13.10;;
22937;SDS011;11634;42.734;23.298;2023-02-28T10:43:33;21.75;;;12.60;;
22937;SDS011;11634;42.734;23.298;2023-02-28T10:51:35;18.98;;;11.45;;
22937;SDS011;11634;42.734;23.298;2023-02-28T10:54:03;13.45;;;8.48;;
22937;SDS011;11634;42.734;23.298;2023-02-28T10:56:30;18.10;;;12.15;;
22937;SDS011;11634;42.734;23.298;2023-02-28T10:59:01;14.70;;;8.52;;
22937;SDS011;11634;42.734;23.298;2023-02-28T11:01:43;23.70;;;11.98;;
22937;SDS011;11634;42.734;23.298;2023-02-28T11:04:35;21.08;;;11.40;;
22937;SDS011;11634;42.734;23.298;2023-02-28T11:07:18;22.08;;;12.05;;
22937;SDS011;11634;42.734;23.298;2023-02-28T11:09:47;17.25;;;9.50;;
22937;SDS011;11634;42.734;23.298;2023-02-28T11:15:06;16.92;;;9.98;;
22937;SDS011;11634;42.734;23.298;2023-02-28T11:17:56;22.67;;;12.35;;
22937;SDS011;11634;42.734;23.298;2023-02-28T11:20:30;24.75;;;13.82;;
22937;SDS011;11634;42.734;23.298;2023-02-28T11:22:59;18.65;;;10.65;;
22937;SDS011;11634;42.734;23.298;2023-02-28T11:25:31;25.52;;;13.50;;
22937;SDS011;11634;42.734;23.298;2023-02-28T11:28:02;23.73;;;14.07;;
22937;SDS011;11634;42.734;23.298;2023-02-28T11:30:38;25.15;;;13.75;;
22937;SDS011;11634;42.734;23.298;2023-02-28T11:33:20;23.55;;;13.02;;
22937;SDS011;11634;42.734;23.298;2023-02-28T11:35:53;32.95;;;14.63;;
22937;SDS011;11634;42.734;23.298;2023-02-28T11:38:26;22.13;;;13.43;;
22937;SDS011;11634;42.734;23.298;2023-02-28T11:47:25;26.20;;;14.35;;
22937;SDS011;11634;42.734;23.298;2023-02-28T11:53:05;29.25;;;13.77;;
22937;SDS011;11634;42.734;23.298;2023-02-28T11:55:45;15.63;;;8.32;;
22937;SDS011;11634;42.734;23.298;2023-02-28T12:09:02;27.35;;;14.13;;
22937;SDS011;11634;42.734;23.298;2023-02-28T12:11:56;23.55;;;12.27;;
22937;SDS011;11634;42.734;23.298;2023-02-28T12:28:10;18.17;;;6.78;;
22937;SDS011;11634;42.734;23.298;2023-02-28T12:30:46;10.85;;;6.00;;
22937;SDS011;11634;42.734;23.298;2023-02-28T12:33:32;16.60;;;9.38;;
22937;SDS011;11634;42.734;23.298;2023-02-28T12:36:03;21.58;;;11.85;;
22937;SDS011;11634;42.734;23.298;2023-02-28T12:38:49;14.73;;;8.00;;
22937;SDS011;11634;42.734;23.298;2023-02-28T12:41:29;14.27;;;7.60;;
22937;SDS011;11634;42.734;23.298;2023-02-28T12:44:06;16.67;;;9.57;;
22937;SDS011;11634;42.734;23.298;2023-02-28T12:46:44;8.77;;;5.70;;
22937;SDS011;11634;42.734;23.298;2023-02-28T12:52:01;20.60;;;9.95;;
22937;SDS011;11634;42.734;23.298;2023-02-28T12:57:11;11.60;;;5.90;;
22937;SDS011;11634;42.734;23.298;2023-02-28T13:05:10;17.13;;;9.27;;
22937;SDS011;11634;42.734;23.298;2023-02-28T13:11:05;21.05;;;10.23;;
22937;SDS011;11634;42.734;23.298;2023-02-28T13:13:31;27.13;;;11.52;;
22937;SDS011;11634;42.734;23.298;2023-02-28T13:18:30;17.33;;;7.72;;
22937;SDS011;11634;42.734;23.298;2023-02-28T13:20:56;18.25;;;9.68;;
22937;SDS011;11634;42.734;23.298;2023-02-28T13:23:40;15.95;;;8.45;;
22937;SDS011;11634;42.734;23.298;2023-02-28T13:26:06;23.52;;;11.35;;
22937;SDS011;11634;42.734;23.298;2023-02-28T13:31:25;21.63;;;11.77;;
22937;SDS011;11634;42.734;23.298;2023-02-28T13:36:26;23.27;;;12.90;;
22937;SDS011;11634;42.734;23.298;2023-02-28T13:39:00;21.02;;;10.52;;
22937;SDS011;11634;42.734;23.298;2023-02-28T13:46:24;19.50;;;10.75;;
22937;SDS011;11634;42.734;23.298;2023-02-28T13:48:49;19.65;;;7.82;;
22937;SDS011;11634;42.734;23.298;2023-02-28T14:03:19;25.13;;;10.43;;
22937;SDS011;11634;42.734;23.298;2023-02-28T14:11:38;28.00;;;10.25;;
22937;SDS011;11634;42.734;23.298;2023-02-28T14:14:06;20.65;;;10.63;;
22937;SDS011;11634;42.734;23.298;2023-02-28T14:16:44;16.35;;;7.72;;
22937;SDS011;11634;42.734;23.298;2023-02-28T14:37:27;18.33;;;10.93;;
22937;SDS011;11634;42.734;23.298;2023-02-28T14:39:56;20.55;;;9.70;;
22937;SDS011;11634;42.734;23.298;2023-02-28T14:44:56;14.88;;;8.63;;
22937;SDS011;11634;42.734;23.298;2023-02-28T14:47:22;23.23;;;12.13;;
22937;SDS011;11634;42.734;23.298;2023-02-28T14:49:50;18.75;;;11.55;;
22937;SDS011;11634;42.734;23.298;2023-02-28T14:54:44;25.48;;;11.75;;
22937;SDS011;11634;42.734;23.298;2023-02-28T14:57:24;25.63;;;12.20;;
22937;SDS011;11634;42.734;23.298;2023-02-28T15:00:02;21.05;;;11.02;;
22937;SDS011;11634;42.734;23.298;2023-02-28T15:02:40;17.88;;;10.73;;
22937;SDS011;11634;42.734;23.298;2023-02-28T15:07:40;16.40;;;11.48;;
22937;SDS011;11634;42.734;23.298;2023-02-28T15:12:49;18.25;;;8.57;;
22937;SDS011;11634;42.734;23.298;2023-02-28T15:15:19;20.17;;;13.57;;
22937;SDS011;11634;42.734;23.298;2023-02-28T15:17:47;23.52;;;13.50;;
22937;SDS011;11634;42.734;23.298;2023-02-28T15:20:17;19.92;;;13.00;;
22937;SDS011;11634;42.734;23.298;2023-02-28T15:22:45;22.77;;;12.85;;
22937;SDS011;11634;42.734;23.298;2023-02-28T15:25:18;17.02;;;10.43;;
22937;SDS011;11634;42.734;23.298;2023-02-28T15:27:47;18.23;;;12.18;;
22937;SDS011;11634;42.734;23.298;2023-02-28T15:35:47;14.43;;;9.65;;
22937;SDS011;11634;42.734;23.298;2023-02-28T15:38:26;11.57;;;6.43;;
22937;SDS011;11634;42.734;23.298;2023-02-28T15:40:56;16.55;;;9.70;;
22937;SDS011;11634;42.734;23.298;2023-02-28T15:46:03;13.95;;;9.23;;
22937;SDS011;11634;42.734;23.298;2023-02-28T15:48:53;17.85;;;10.32;;
22937;SDS011;11634;42.734;23.298;2023-02-28T15:53:59;18.73;;;11.98;;
22937;SDS011;11634;42.734;23.298;2023-02-28T15:56:31;14.52;;;9.05;;
22937;SDS011;11634;42.734;23.298;2023-02-28T15:59:18;14.10;;;9.30;;
22937;SDS011;11634;42.734;23.298;2023-02-28T16:07:29;15.25;;;7.80;;
22937;SDS011;11634;42.734;23.298;2023-02-28T16:09:55;14.80;;;8.27;;
22937;SDS011;11634;42.734;23.298;2023-02-28T16:12:25;11.98;;;4.90;;
22937;SDS011;11634;42.734;23.298;2023-02-28T16:14:53;2.63;;;1.77;;
22937;SDS011;11634;42.734;23.298;2023-02-28T16:17:22;6.13;;;4.45;;
22937;SDS011;11634;42.734;23.298;2023-02-28T16:19:49;6.57;;;4.15;;
22937;SDS011;11634;42.734;23.298;2023-02-28T16:22:15;8.32;;;4.47;;
22937;SDS011;11634;42.734;23.298;2023-02-28T16:24:41;9.75;;;4.90;;
22937;SDS011;11634;42.734;23.298;2023-02-28T16:27:06;7.20;;;5.13;;
22937;SDS011;11634;42.734;23.298;2023-02-28T16:29:45;8.88;;;5.57;;
22937;SDS011;11634;42.734;23.298;2023-02-28T16:32:13;9.68;;;4.90;;
22937;SDS011;11634;42.734;23.298;2023-02-28T16:34:39;8.27;;;4.55;;
22937;SDS011;11634;42.734;23.298;2023-02-28T16:37:09;6.65;;;3.50;;
22937;SDS011;11634;42.734;23.298;2023-02-28T16:39:37;3.35;;;2.28;;
22937;SDS011;11634;42.734;23.298;2023-02-28T16:42:02;3.67;;;1.83;;
22937;SDS011;11634;42.734;23.298;2023-02-28T16:44:30;7.15;;;3.65;;
22937;SDS011;11634;42.734;23.298;2023-02-28T16:47:02;6.03;;;3.20;;
22937;SDS011;11634;42.734;23.298;2023-02-28T16:49:29;7.13;;;3.35;;
22937;SDS011;11634;42.734;23.298;2023-02-28T16:51:55;6.00;;;3.95;;
22937;SDS011;11634;42.734;23.298;2023-02-28T16:54:20;9.82;;;4.28;;
22937;SDS011;11634;42.734;23.298;2023-02-28T16:56:47;6.85;;;3.75;;
22937;SDS011;11634;42.734;23.298;2023-02-28T16:59:14;12.27;;;6.28;;
22937;SDS011;11634;42.734;23.298;2023-02-28T17:01:44;9.13;;;6.38;;
22937;SDS011;11634;42.734;23.298;2023-02-28T17:04:10;9.55;;;6.38;;
22937;SDS011;11634;42.734;23.298;2023-02-28T17:06:37;14.18;;;8.02;;
22937;SDS011;11634;42.734;23.298;2023-02-28T17:09:02;10.50;;;4.03;;
22937;SDS011;11634;42.734;23.298;2023-02-28T17:11:28;11.73;;;7.63;;
22937;SDS011;11634;42.734;23.298;2023-02-28T17:13:55;14.15;;;7.38;;
22937;SDS011;11634;42.734;23.298;2023-02-28T17:18:54;11.80;;;8.82;;
22937;SDS011;11634;42.734;23.298;2023-02-28T17:21:23;11.23;;;6.57;;
22937;SDS011;11634;42.734;23.298;2023-02-28T17:23:49;4.43;;;3.60;;
22937;SDS011;11634;42.734;23.298;2023-02-28T17:26:19;6.78;;;5.80;;